Time;durP1;ratioP1;P1;durP2;ratioP2;P2;SDS_P1;SDS_P2;PMS_P1;PMS_P2;Temp;Humidity;BMP_temperature;BMP_pressure;BME280_temperature;BME280_humidity;BME280_pressure;Samples;Min_cycle;Max_cycle;Signal;HPM_P1;HPM_P2
2024/04/15 00:01:06;;;;;;;0.10;0.00;;;5.80;1.00;;;;;;5457147;26;20756;-61
2024/04/15 00:03:32;;;;;;;0.00;0.00;;;5.70;1.00;;;;;;5476236;26;20021;-61
2024/04/15 00:05:58;;;;;;;0.08;0.08;;;5.70;1.00;;;;;;5478773;26;20006;-61
2024/04/15 00:08:24;;;;;;;0.00;0.00;;;5.70;1.00;;;;;;5460915;26;20338;-61
2024/04/15 00:10:50;;;;;;;0.00;0.00;;;5.60;1.00;;;;;;5479576;26;20016;-61
2024/04/15 00:13:16;;;;;;;0.00;0.00;;;5.60;1.00;;;;;;5433146;26;20006;-60
2024/04/15 00:15:42;;;;;;;0.00;0.00;;;5.50;1.00;;;;;;5445731;26;20006;-61
2024/04/15 00:18:08;;;;;;;0.00;0.00;;;5.50;1.00;;;;;;5477646;26;20025;-60
2024/04/15 00:20:34;;;;;;;0.00;0.00;;;5.50;1.00;;;;;;5476107;26;20441;-61
2024/04/15 00:23:00;;;;;;;0.00;0.00;;;5.40;1.00;;;;;;5446605;26;20002;-61
2024/04/15 00:25:26;;;;;;;0.00;0.00;;;5.40;1.00;;;;;;5476045;26;20021;-60
2024/04/15 00:27:52;;;;;;;0.00;0.00;;;5.30;1.00;;;;;;5478694;26;20506;-61
2024/04/15 00:30:18;;;;;;;0.00;0.00;;;5.30;1.00;;;;;;5452155;26;20337;-61
2024/04/15 00:32:44;;;;;;;0.00;0.00;;;5.30;1.00;;;;;;5478230;26;20006;-60
2024/04/15 00:35:10;;;;;;;0.00;0.00;;;5.30;1.00;;;;;;5477535;26;20435;-61
2024/04/15 00:37:36;;;;;;;0.00;0.00;;;5.30;1.00;;;;;;5464636;26;20021;-61
2024/04/15 00:40:02;;;;;;;0.00;0.00;;;5.30;1.00;;;;;;5477987;26;20010;-61
2024/04/15 00:42:28;;;;;;;0.00;0.00;;;5.30;19.90;;;;;;5444294;26;20025;-61
2024/04/15 00:44:55;;;;;;;0.00;0.00;;;5.30;31.50;;;;;;5445954;26;20006;-61
2024/04/15 00:47:21;;;;;;;0.03;0.00;;;5.30;36.80;;;;;;5429287;26;20007;-61
2024/04/15 00:49:48;;;;;;;0.00;0.00;;;5.20;26.90;;;;;;5441503;26;20078;-61
2024/04/15 00:52:14;;;;;;;0.00;0.00;;;5.20;1.00;;;;;;5440600;26;20032;-61
2024/04/15 00:54:42;;;;;;;0.00;0.00;;;5.10;1.00;;;;;;5440847;26;20020;-61
2024/04/15 00:57:09;;;;;;;0.00;0.00;;;5.00;1.00;;;;;;5439876;26;20007;-61
2024/04/15 00:59:38;;;;;;;0.00;0.00;;;5.00;1.00;;;;;;5434379;26;20003;-61
2024/04/15 01:02:05;;;;;;;0.10;0.10;;;5.00;1.00;;;;;;5409827;26;20018;-61
2024/04/15 01:04:31;;;;;;;0.00;0.00;;;5.00;1.00;;;;;;5439130;26;20817;-60
2024/04/15 01:06:58;;;;;;;0.00;0.00;;;4.90;1.00;;;;;;5441156;26;20026;-61
2024/04/15 01:09:24;;;;;;;0.00;0.00;;;4.90;6.10;;;;;;5439715;26;20556;-61
2024/04/15 01:11:50;;;;;;;0.00;0.00;;;4.80;23.40;;;;;;5409487;26;20003;-61
2024/04/15 01:14:15;;;;;;;0.00;0.00;;;4.80;60.20;;;;;;5440731;26;20006;-61
2024/04/15 01:16:41;;;;;;;0.00;0.00;;;4.80;99.90;;;;;;5440190;26;20665;-61
2024/04/15 01:19:07;;;;;;;0.00;0.00;;;4.80;99.90;;;;;;5438858;26;20025;-61
2024/04/15 01:21:33;;;;;;;0.00;0.00;;;4.80;99.90;;;;;;5439110;26;20479;-60
2024/04/15 01:24:00;;;;;;;0.00;0.00;;;4.80;99.90;;;;;;5441337;26;20080;-61
2024/04/15 01:26:26;;;;;;;0.00;0.00;;;4.80;99.90;;;;;;5407820;26;20076;-61
2024/04/15 01:28:52;;;;;;;0.00;0.00;;;4.70;99.90;;;;;;5437849;26;20639;-61
2024/04/15 01:31:18;;;;;;;0.03;0.03;;;4.70;99.90;;;;;;5439062;26;20007;-61
2024/04/15 01:33:44;;;;;;;0.00;0.00;;;4.70;99.90;;;;;;5440161;26;20129;-61
2024/04/15 01:36:10;;;;;;;0.00;0.00;;;4.70;99.90;;;;;;5441198;26;20006;-61
2024/04/15 01:38:36;;;;;;;0.10;0.00;;;4.70;99.90;;;;;;5439085;26;20007;-61
2024/04/15 01:41:15;;;;;;;0.00;0.00;;;4.70;99.90;;;;;;5413494;26;20043;-61
2024/04/15 01:43:41;;;;;;;0.00;0.00;;;4.70;99.90;;;;;;5438574;26;20006;-61
2024/04/15 01:46:07;;;;;;;0.00;0.00;;;4.70;99.90;;;;;;5441183;26;20563;-61
2024/04/15 01:48:32;;;;;;;0.00;0.00;;;4.60;99.90;;;;;;5469674;26;20010;-61
2024/04/15 01:50:58;;;;;;;0.00;0.00;;;4.70;99.90;;;;;;5474438;26;20021;-61
2024/04/15 01:53:25;;;;;;;0.00;0.00;;;4.70;99.90;;;;;;5444896;26;20504;-61
2024/04/15 01:55:51;;;;;;;0.00;0.00;;;4.70;99.90;;;;;;5475021;26;20021;-61
2024/04/15 01:58:17;;;;;;;0.00;0.00;;;4.70;99.90;;;;;;5477159;26;20264;-61
2024/04/15 02:00:44;;;;;;;0.00;0.00;;;4.70;99.90;;;;;;5457984;26;20002;-61
2024/04/15 02:03:09;;;;;;;0.00;0.00;;;4.80;99.90;;;;;;5477891;26;20032;-61
2024/04/15 02:05:35;;;;;;;0.00;0.00;;;4.70;99.90;;;;;;5474599;26;20006;-61
2024/04/15 02:08:01;;;;;;;0.00;0.00;;;4.80;99.90;;;;;;5476395;26;20019;-61
2024/04/15 02:10:27;;;;;;;0.00;0.00;;;4.70;99.90;;;;;;5457776;26;20021;-61
2024/04/15 02:12:53;;;;;;;0.00;0.00;;;4.70;99.90;;;;;;5471824;26;20555;-61
2024/04/15 02:15:19;;;;;;;0.00;0.00;;;4.70;99.90;;;;;;5476967;26;20014;-61
2024/04/15 02:17:45;;;;;;;0.00;0.00;;;4.60;99.90;;;;;;5442352;26;20160;-61
2024/04/15 02:20:15;;;;;;;0.00;0.00;;;4.70;99.90;;;;;;5476864;26;20460;-61
2024/04/15 02:22:41;;;;;;;0.00;0.00;;;4.60;99.90;;;;;;5417090;26;20083;-61
2024/04/15 02:25:07;;;;;;;0.00;0.00;;;4.60;99.90;;;;;;5477295;26;20014;-60
2024/04/15 02:27:35;;;;;;;0.00;0.00;;;4.60;99.90;;;;;;5476279;26;20358;-61
2024/04/15 02:30:07;;;;;;;0.00;0.00;;;4.60;99.90;;;;;;5413493;26;20024;-61
2024/04/15 02:32:33;;;;;;;0.00;0.00;;;4.60;99.90;;;;;;5432211;26;20002;-61
2024/04/15 02:34:59;;;;;;;0.00;0.00;;;4.60;99.90;;;;;;5442192;26;20020;-61
2024/04/15 02:37:25;;;;;;;0.00;0.00;;;4.60;99.90;;;;;;5476958;26;20424;-61
2024/04/15 02:39:50;;;;;;;0.00;0.00;;;4.60;99.90;;;;;;5442047;26;20006;-61
2024/04/15 02:42:17;;;;;;;0.00;0.00;;;4.60;99.90;;;;;;5463758;26;20078;-61
2024/04/15 02:44:44;;;;;;;0.00;0.00;;;4.60;99.90;;;;;;5475106;26;20259;-60
2024/04/15 02:47:10;;;;;;;0.00;0.00;;;4.60;99.90;;;;;;5476188;26;20116;-61
2024/04/15 02:49:35;;;;;;;0.00;0.00;;;4.50;99.90;;;;;;5476677;26;20013;-61
2024/04/15 02:52:01;;;;;;;0.57;0.00;;;4.50;99.90;;;;;;5463806;26;20014;-61
2024/04/15 02:54:27;;;;;;;0.00;0.00;;;4.50;99.90;;;;;;5444842;26;20401;-61
2024/04/15 02:56:54;;;;;;;0.10;0.10;;;4.50;99.90;;;;;;5441544;26;20002;-61
2024/04/15 02:59:20;;;;;;;0.00;0.00;;;4.60;99.90;;;;;;5414939;26;20010;-60
2024/04/15 03:01:46;;;;;;;0.00;0.00;;;4.60;99.90;;;;;;5470879;26;20013;-61
2024/04/15 03:04:12;;;;;;;0.00;0.00;;;4.70;99.90;;;;;;5444291;26;20043;-60
2024/04/15 03:06:58;;;;;;;0.32;0.00;;;4.60;99.90;;;;;;5448565;26;20017;-60
2024/04/15 03:09:25;;;;;;;0.00;0.00;;;4.70;1.00;;;;;;5474733;26;20006;-61
2024/04/15 03:11:51;;;;;;;0.00;0.00;;;4.70;1.00;;;;;;5443909;26;20095;-61
2024/04/15 03:14:17;;;;;;;0.00;0.00;;;4.80;1.00;;;;;;5471780;26;20018;-60
2024/04/15 03:17:03;;;;;;;0.00;0.00;;;4.80;1.00;;;;;;5448594;26;20582;-60
2024/04/15 03:19:29;;;;;;;0.25;0.00;;;4.90;1.00;;;;;;5475233;26;20014;-60
2024/04/15 03:21:55;;;;;;;0.00;0.00;;;5.00;1.00;;;;;;5473220;26;20006;-61
2024/04/15 03:24:21;;;;;;;0.00;0.00;;;5.00;1.00;;;;;;5474650;26;20003;-60
2024/04/15 03:26:47;;;;;;;0.00;0.00;;;5.10;1.00;;;;;;5441928;26;20006;-61
2024/04/15 03:29:14;;;;;;;0.00;0.00;;;5.10;1.00;;;;;;5475033;26;20010;-61
2024/04/15 03:31:46;;;;;;;0.00;0.00;;;5.20;1.00;;;;;;5474321;26;20078;-60
2024/04/15 03:34:12;;;;;;;0.00;0.00;;;5.30;1.00;;;;;;5474826;26;20014;-61
2024/04/15 03:36:38;;;;;;;0.00;0.00;;;5.30;1.00;;;;;;5474715;26;20006;-61
2024/04/15 03:39:04;;;;;;;0.00;0.00;;;5.30;1.00;;;;;;5473775;26;20010;-61
2024/04/15 03:41:30;;;;;;;0.00;0.00;;;5.40;1.00;;;;;;5475232;26;20439;-61
2024/04/15 03:43:55;;;;;;;0.00;0.00;;;5.40;1.00;;;;;;5466173;26;20006;-60
2024/04/15 03:46:21;;;;;;;0.00;0.00;;;5.40;1.00;;;;;;5464380;26;20388;-61
2024/04/15 03:48:47;;;;;;;0.00;0.00;;;5.50;1.00;;;;;;5430331;26;20030;-61
2024/04/15 03:51:33;;;;;;;0.00;0.00;;;5.50;1.00;;;;;;5412327;26;20014;-61
2024/04/15 03:53:59;;;;;;;0.00;0.00;;;5.50;1.00;;;;;;5437545;26;20003;-60
2024/04/15 03:56:25;;;;;;;0.00;0.00;;;5.50;1.00;;;;;;5406662;26;20007;-61
2024/04/15 03:59:00;;;;;;;0.00;0.00;;;5.60;1.00;;;;;;5438581;26;20066;-61
2024/04/15 04:01:26;;;;;;;0.00;0.00;;;5.60;1.00;;;;;;5437017;26;20018;-60
2024/04/15 04:04:06;;;;;;;0.00;0.00;;;5.60;1.00;;;;;;5413574;26;20050;-60
2024/04/15 04:06:32;;;;;;;0.00;0.00;;;5.60;1.00;;;;;;5436458;26;20352;-60
2024/04/15 04:08:58;;;;;;;0.00;0.00;;;5.70;1.00;;;;;;5437775;26;20002;-60
2024/04/15 04:11:27;;;;;;;0.00;0.00;;;5.70;1.00;;;;;;5438551;26;20007;-60
2024/04/15 04:13:53;;;;;;;0.00;0.00;;;5.70;1.00;;;;;;5439231;26;20030;-61
2024/04/15 04:16:21;;;;;;;0.00;0.00;;;5.80;3.00;;;;;;5401709;26;20034;-60
2024/04/15 04:18:47;;;;;;;0.00;0.00;;;5.80;13.60;;;;;;5409194;26;20017;-60
2024/04/15 04:21:33;;;;;;;0.00;0.00;;;5.80;20.30;;;;;;5415680;26;20020;-61
2024/04/15 04:23:59;;;;;;;0.00;0.00;;;5.80;20.50;;;;;;5409342;26;20454;-61
2024/04/15 04:26:25;;;;;;;0.00;0.00;;;5.90;36.00;;;;;;5428997;26;20086;-60
2024/04/15 04:28:50;;;;;;;0.00;0.00;;;5.90;48.50;;;;;;5410736;26;20445;-60
2024/04/15 04:31:17;;;;;;;0.00;0.00;;;6.00;57.20;;;;;;5437825;26;20003;-61
2024/04/15 04:33:43;;;;;;;0.00;0.00;;;6.00;68.60;;;;;;5441887;26;20344;-60
2024/04/15 04:36:10;;;;;;;0.00;0.00;;;6.10;84.50;;;;;;5440228;26;20083;-61
2024/04/15 04:38:35;;;;;;;0.00;0.00;;;6.10;81.40;;;;;;5417028;26;20031;-61
2024/04/15 04:41:01;;;;;;;0.00;0.00;;;6.10;90.10;;;;;;5439104;26;20076;-61
2024/04/15 04:43:27;;;;;;;0.00;0.00;;;6.10;90.90;;;;;;5410176;26;20007;-60
2024/04/15 04:45:53;;;;;;;0.00;0.00;;;6.20;81.40;;;;;;5441806;26;20030;-61
2024/04/15 04:48:20;;;;;;;0.00;0.00;;;6.20;70.80;;;;;;5469148;26;20017;-61
2024/04/15 04:50:51;;;;;;;0.00;0.00;;;6.20;66.00;;;;;;5472141;26;20003;-61
2024/04/15 04:53:17;;;;;;;0.00;0.00;;;6.20;40.90;;;;;;5466436;26;20411;-61
2024/04/15 04:55:43;;;;;;;1.00;0.00;;;6.30;24.90;;;;;;5478422;26;20014;-60
2024/04/15 04:58:09;;;;;;;0.00;0.00;;;6.30;17.30;;;;;;5476389;26;20356;-60
2024/04/15 05:00:35;;;;;;;0.00;0.00;;;6.30;13.80;;;;;;5477617;26;20009;-60
2024/04/15 05:03:02;;;;;;;0.00;0.00;;;6.30;4.00;;;;;;5475078;26;20014;-60
2024/04/15 05:05:32;;;;;;;0.00;0.00;;;6.30;1.00;;;;;;5476881;26;20002;-61
2024/04/15 05:07:58;;;;;;;0.00;0.00;;;6.40;1.00;;;;;;5478025;26;20006;-61
2024/04/15 05:10:24;;;;;;;0.00;0.00;;;6.40;1.00;;;;;;5413799;26;20021;-61
2024/04/15 05:12:49;;;;;;;0.00;0.00;;;6.40;1.00;;;;;;5461087;26;20020;-61
2024/04/15 05:15:15;;;;;;;0.00;0.00;;;6.40;1.00;;;;;;5457493;26;20567;-61
2024/04/15 05:17:41;;;;;;;0.00;0.00;;;6.40;1.00;;;;;;5470807;26;20456;-61
2024/04/15 05:20:08;;;;;;;0.00;0.00;;;6.40;1.00;;;;;;5476389;26;20020;-61
2024/04/15 05:22:34;;;;;;;0.00;0.00;;;6.50;1.00;;;;;;5462890;26;20079;-61
2024/04/15 05:25:00;;;;;;;0.00;0.00;;;6.50;1.00;;;;;;5452185;26;20006;-61
2024/04/15 05:27:26;;;;;;;0.00;0.00;;;6.50;1.00;;;;;;5475299;26;20405;-61
2024/04/15 05:29:51;;;;;;;0.00;0.00;;;6.50;1.00;;;;;;5477377;26;20017;-61
2024/04/15 05:32:17;;;;;;;0.00;0.00;;;6.60;1.00;;;;;;5458523;26;20015;-61
2024/04/15 05:34:43;;;;;;;0.00;0.00;;;6.60;1.00;;;;;;5451181;26;20007;-60
2024/04/15 05:37:09;;;;;;;0.00;0.00;;;6.60;1.00;;;;;;5443200;26;20359;-61
2024/04/15 05:39:35;;;;;;;0.00;0.00;;;6.70;1.00;;;;;;5445269;26;20009;-61
2024/04/15 05:42:01;;;;;;;0.00;0.00;;;6.70;1.00;;;;;;5477118;26;20006;-61
2024/04/15 05:44:27;;;;;;;0.00;0.00;;;6.70;1.00;;;;;;5457207;26;20060;-61
2024/04/15 05:46:53;;;;;;;0.00;0.00;;;6.70;1.00;;;;;;5476777;26;20013;-61
2024/04/15 05:49:19;;;;;;;0.00;0.00;;;6.80;1.00;;;;;;5473572;26;20017;-61
2024/04/15 05:51:45;;;;;;;0.00;0.00;;;6.70;1.00;;;;;;5477238;26;20006;-61
2024/04/15 05:54:11;;;;;;;0.00;0.00;;;6.80;1.00;;;;;;5460426;26;20013;-61
2024/04/15 05:56:37;;;;;;;0.00;0.00;;;6.80;1.00;;;;;;5426650;26;20003;-61
2024/04/15 05:59:03;;;;;;;0.00;0.00;;;6.90;1.00;;;;;;5469297;26;20006;-61
2024/04/15 06:01:29;;;;;;;0.00;0.00;;;7.00;1.00;;;;;;5464360;26;20002;-61
2024/04/15 06:03:55;;;;;;;0.00;0.00;;;7.00;1.00;;;;;;5462862;26;20387;-61
2024/04/15 06:06:21;;;;;;;0.00;0.00;;;7.10;1.00;;;;;;5466614;26;20002;-61
2024/04/15 06:08:47;;;;;;;0.00;0.00;;;7.20;1.00;;;;;;5460393;26;20007;-61
2024/04/15 06:11:19;;;;;;;0.00;0.00;;;7.20;1.00;;;;;;5454873;26;20010;-60
2024/04/15 06:13:45;;;;;;;0.00;0.00;;;7.30;1.00;;;;;;5446063;26;19999;-61
2024/04/15 06:16:11;;;;;;;0.10;0.10;;;7.30;99.90;;;;;;5461248;26;20070;-61
2024/04/15 06:18:37;;;;;;;0.00;0.00;;;7.40;1.00;;;;;;5457058;26;20010;-61
2024/04/15 06:21:03;;;;;;;0.00;0.00;;;7.50;1.00;;;;;;5436719;26;20455;-61
2024/04/15 06:23:29;;;;;;;0.00;0.00;;;7.60;1.00;;;;;;5458487;26;20019;-61
2024/04/15 06:25:55;;;;;;;0.00;0.00;;;7.70;1.00;;;;;;5474619;26;20552;-61
2024/04/15 06:28:21;;;;;;;0.00;0.00;;;7.80;1.00;;;;;;5474205;26;20007;-61
2024/04/15 06:30:46;;;;;;;0.00;0.00;;;7.90;1.00;;;;;;5476768;26;20013;-61
2024/04/15 06:33:12;;;;;;;1.30;0.10;;;8.00;99.90;;;;;;5435218;26;19994;-61
2024/04/15 06:35:38;;;;;;;0.00;0.00;;;8.10;99.90;;;;;;5457778;26;20006;-61
2024/04/15 06:38:04;;;;;;;0.00;0.00;;;8.30;99.90;;;;;;5476586;26;20455;-61
2024/04/15 06:40:32;;;;;;;0.00;0.00;;;8.40;99.90;;;;;;5458578;26;20463;-61
2024/04/15 06:42:58;;;;;;;0.00;0.00;;;8.60;99.90;;;;;;5443681;26;20341;-61
2024/04/15 06:45:24;;;;;;;0.00;0.00;;;8.80;99.90;;;;;;5448641;26;20079;-61
2024/04/15 06:47:50;;;;;;;0.00;0.00;;;8.90;99.90;;;;;;5476367;26;20006;-61
2024/04/15 06:50:16;;;;;;;0.00;0.00;;;8.90;99.90;;;;;;5465637;26;20447;-60
2024/04/15 06:52:42;;;;;;;0.00;0.00;;;8.90;99.90;;;;;;5456160;26;20047;-61
2024/04/15 06:55:08;;;;;;;0.00;0.00;;;9.10;99.90;;;;;;5466920;26;20006;-61
2024/04/15 06:57:33;;;;;;;0.00;0.00;;;9.10;99.90;;;;;;5474977;26;20597;-61
2024/04/15 07:00:00;;;;;;;0.00;0.00;;;9.10;99.90;;;;;;5476180;26;20021;-61
2024/04/15 07:02:25;;;;;;;0.00;0.00;;;9.10;99.90;;;;;;5472515;26;20013;-61
2024/04/15 07:04:52;;;;;;;0.00;0.00;;;9.20;99.90;;;;;;5476185;26;20030;-61
2024/04/15 07:07:21;;;;;;;0.00;0.00;;;9.40;99.90;;;;;;5462681;26;20002;-61
2024/04/15 07:09:47;;;;;;;0.00;0.00;;;9.70;99.90;;;;;;5468812;26;20030;-61
2024/04/15 07:12:13;;;;;;;0.00;0.00;;;10.00;99.90;;;;;;5474431;26;20074;-61
2024/04/15 07:14:39;;;;;;;0.00;0.00;;;10.30;58.00;;;;;;5474911;26;20006;-61
2024/04/15 07:17:05;;;;;;;0.00;0.00;;;10.50;1.00;;;;;;5475647;26;20005;-61
2024/04/15 07:19:31;;;;;;;0.00;0.00;;;10.70;1.00;;;;;;5465483;26;20018;-61
2024/04/15 07:21:57;;;;;;;0.00;0.00;;;10.90;1.00;;;;;;5456670;26;20015;-61
2024/04/15 07:24:22;;;;;;;0.00;0.00;;;11.10;1.00;;;;;;5457045;26;20370;-61
2024/04/15 07:26:48;;;;;;;0.00;0.00;;;11.40;1.00;;;;;;5469628;26;20593;-61
2024/04/15 07:29:14;;;;;;;0.95;0.10;;;11.60;99.90;;;;;;5460699;26;20044;-61
2024/04/15 07:31:40;;;;;;;0.00;0.00;;;11.70;99.90;;;;;;5463334;26;20308;-61
2024/04/15 07:34:06;;;;;;;0.00;0.00;;;11.80;99.90;;;;;;5468703;26;20006;-61
2024/04/15 07:36:32;;;;;;;0.22;0.05;;;11.70;99.90;;;;;;5442558;26;20426;-61
2024/04/15 07:38:58;;;;;;;0.22;0.10;;;11.80;99.90;;;;;;5469630;26;20073;-61
2024/04/15 07:41:25;;;;;;;0.00;0.00;;;12.00;99.90;;;;;;5463379;26;20455;-61
2024/04/15 07:43:51;;;;;;;0.00;0.00;;;12.10;99.90;;;;;;5433733;26;20017;-61
2024/04/15 07:46:17;;;;;;;1.10;0.10;;;12.40;99.90;;;;;;5463352;26;20006;-61
2024/04/15 07:48:43;;;;;;;0.00;0.00;;;12.60;99.90;;;;;;5476378;26;20017;-61
2024/04/15 07:51:09;;;;;;;0.00;0.00;;;12.60;99.90;;;;;;5456980;26;20013;-61
2024/04/15 07:53:35;;;;;;;0.00;0.00;;;12.60;99.90;;;;;;5465491;26;20034;-61
2024/04/15 07:56:01;;;;;;;0.00;0.00;;;12.70;99.90;;;;;;5478411;26;20419;-61
2024/04/15 07:58:30;;;;;;;0.00;0.00;;;12.60;99.90;;;;;;5445070;26;20042;-60
2024/04/15 08:00:56;;;;;;;0.00;0.00;;;12.50;99.90;;;;;;5475082;26;20007;-61
2024/04/15 08:03:22;;;;;;;0.00;0.00;;;12.40;99.90;;;;;;5476171;26;20021;-61
2024/04/15 08:05:48;;;;;;;0.00;0.00;;;12.40;99.90;;;;;;5464387;26;20014;-61
2024/04/15 08:08:15;;;;;;;0.00;0.00;;;12.40;99.90;;;;;;5476787;26;20430;-61
2024/04/15 08:10:40;;;;;;;0.00;0.00;;;12.40;99.90;;;;;;5477759;26;20002;-61
2024/04/15 08:13:06;;;;;;;0.00;0.00;;;12.40;99.90;;;;;;5474697;26;20087;-61
2024/04/15 08:15:32;;;;;;;0.10;0.00;;;12.30;99.90;;;;;;5455444;26;20015;-61
2024/04/15 08:18:00;;;;;;;0.08;0.08;;;12.40;99.90;;;;;;5466197;26;20006;-61
2024/04/15 08:20:26;;;;;;;0.08;0.08;;;12.30;99.90;;;;;;5469556;26;20011;-61
2024/04/15 08:22:52;;;;;;;0.10;0.10;;;12.40;99.90;;;;;;5454037;26;20520;-61
2024/04/15 08:25:18;;;;;;;0.00;0.00;;;12.50;99.90;;;;;;5457306;26;20013;-61
2024/04/15 08:27:44;;;;;;;0.00;0.00;;;12.60;99.90;;;;;;5445644;26;20014;-60
2024/04/15 08:30:10;;;;;;;0.10;0.10;;;12.70;99.90;;;;;;5461610;26;20021;-61
2024/04/15 08:32:36;;;;;;;0.13;0.10;;;12.70;99.90;;;;;;5451859;26;20045;-61
2024/04/15 08:35:02;;;;;;;0.00;0.00;;;13.10;99.90;;;;;;5463735;26;20287;-61
2024/04/15 08:37:30;;;;;;;0.10;0.10;;;13.40;99.90;;;;;;5453184;26;20075;-61
2024/04/15 08:39:56;;;;;;;0.10;0.10;;;13.60;99.90;;;;;;5458289;26;20480;-61
2024/04/15 08:42:36;;;;;;;0.10;0.10;;;13.50;95.80;;;;;;5457708;26;20010;-61
2024/04/15 08:45:07;;;;;;;0.13;0.13;;;13.50;57.50;;;;;;5463729;26;20033;-61
2024/04/15 08:47:34;;;;;;;0.00;0.00;;;13.50;99.90;;;;;;5455250;26;20120;-61
2024/04/15 08:50:03;;;;;;;0.10;0.10;;;13.40;99.90;;;;;;5455389;26;20535;-61
2024/04/15 08:52:29;;;;;;;0.10;0.10;;;13.40;99.90;;;;;;5459399;26;20020;-61
2024/04/15 08:54:55;;;;;;;0.00;0.00;;;13.30;99.90;;;;;;5457538;26;20007;-61
2024/04/15 08:57:21;;;;;;;0.20;0.10;;;13.50;99.90;;;;;;5462856;26;20486;-61
2024/04/15 08:59:50;;;;;;;0.00;0.00;;;13.60;99.90;;;;;;5384224;26;20026;-61
2024/04/15 09:02:16;;;;;;;0.28;0.10;;;13.70;99.90;;;;;;5473285;26;20042;-61
2024/04/15 09:04:43;;;;;;;0.00;0.00;;;14.00;99.90;;;;;;5452876;26;20017;-61
2024/04/15 09:07:09;;;;;;;0.15;0.15;;;14.10;99.90;;;;;;5457262;26;20006;-61
2024/04/15 09:09:36;;;;;;;0.47;0.20;;;14.20;99.90;;;;;;5461927;26;20002;-60
2024/04/15 09:12:02;;;;;;;0.08;0.08;;;14.40;99.90;;;;;;5476102;26;20454;-61
2024/04/15 09:14:28;;;;;;;0.00;0.00;;;14.40;99.90;;;;;;5473151;26;20010;-61
2024/04/15 09:16:54;;;;;;;0.10;0.10;;;14.40;99.90;;;;;;5475336;26;20258;-61
2024/04/15 09:19:26;;;;;;;0.00;0.00;;;14.30;99.90;;;;;;5477145;26;20010;-61
2024/04/15 09:21:59;;;;;;;0.10;0.10;;;14.00;99.90;;;;;;5475761;26;20006;-61
2024/04/15 09:24:25;;;;;;;4.85;0.17;;;14.00;99.90;;;;;;5468053;26;20011;-61
2024/04/15 09:26:51;;;;;;;0.00;0.00;;;13.90;99.90;;;;;;5453514;26;20135;-61
2024/04/15 09:29:18;;;;;;;0.00;0.00;;;13.80;99.90;;;;;;5464153;26;20005;-61
2024/04/15 09:31:44;;;;;;;0.00;0.00;;;13.70;99.90;;;;;;5474540;26;20028;-61
2024/04/15 09:34:10;;;;;;;0.00;0.00;;;13.60;73.20;;;;;;5474314;26;20006;-61
2024/04/15 09:36:41;;;;;;;1.85;0.10;;;13.50;99.90;;;;;;5452129;26;20077;-61
2024/04/15 09:39:10;;;;;;;0.10;0.10;;;13.50;92.00;;;;;;5470431;26;20002;-61
2024/04/15 09:41:38;;;;;;;0.10;0.10;;;13.40;99.00;;;;;;5464370;26;20006;-61
2024/04/15 09:44:08;;;;;;;0.17;0.10;;;13.30;99.20;;;;;;5471306;26;20078;-61
2024/04/15 09:46:36;;;;;;;0.08;0.00;;;13.40;99.90;;;;;;5451087;26;20006;-61
2024/04/15 09:49:03;;;;;;;0.00;0.00;;;13.30;99.90;;;;;;5470936;26;20020;-61
2024/04/15 09:51:32;;;;;;;0.57;0.10;;;13.30;99.90;;;;;;5431151;26;20104;-61
2024/04/15 09:54:01;;;;;;;0.20;0.20;;;13.20;83.20;;;;;;5468926;26;20029;-63
2024/04/15 09:56:28;;;;;;;0.08;0.08;;;13.30;99.90;;;;;;5430839;26;20007;-63
2024/04/15 09:58:57;;;;;;;0.08;0.08;;;13.60;99.90;;;;;;5449669;26;20415;-63
2024/04/15 10:01:31;;;;;;;0.00;0.00;;;13.70;90.70;;;;;;5476645;26;20070;-63
2024/04/15 10:04:01;;;;;;;0.00;0.00;;;13.70;24.20;;;;;;5471528;26;20078;-63
2024/04/15 10:06:31;;;;;;;0.00;0.00;;;13.80;51.50;;;;;;5469545;26;20013;-63
2024/04/15 10:08:58;;;;;;;0.65;0.28;;;13.70;27.90;;;;;;5468995;26;20464;-63
2024/04/15 10:11:27;;;;;;;0.40;0.10;;;13.60;44.50;;;;;;5450559;26;20079;-64
2024/04/15 10:13:54;;;;;;;0.00;0.00;;;13.70;43.00;;;;;;5475282;26;20010;-64
2024/04/15 10:16:19;;;;;;;0.00;0.00;;;13.80;83.50;;;;;;5474911;26;20006;-63
2024/04/15 10:18:58;;;;;;;0.40;0.10;;;13.80;81.30;;;;;;5473456;26;20082;-63
2024/04/15 10:21:24;;;;;;;0.00;0.00;;;13.70;90.70;;;;;;5475038;26;20006;-63
2024/04/15 10:23:51;;;;;;;0.03;0.03;;;13.60;78.20;;;;;;5476894;26;20006;-63
2024/04/15 10:26:19;;;;;;;0.00;0.00;;;13.50;99.90;;;;;;5475328;26;20103;-63
2024/04/15 10:28:44;;;;;;;0.10;0.10;;;13.50;99.90;;;;;;5473408;26;20013;-63
2024/04/15 10:31:14;;;;;;;0.00;0.00;;;13.40;30.20;;;;;;5443238;26;20319;-64
2024/04/15 10:33:51;;;;;;;0.00;0.00;;;13.30;87.00;;;;;;5474728;26;20014;-63
2024/04/15 10:36:16;;;;;;;0.00;0.00;;;13.30;99.90;;;;;;5467453;26;20006;-63
2024/04/15 10:38:49;;;;;;;0.03;0.03;;;13.30;71.20;;;;;;5436913;26;20449;-63
2024/04/15 10:41:21;;;;;;;0.00;0.00;;;13.10;99.90;;;;;;5471730;26;19994;-63
2024/04/15 10:43:47;;;;;;;0.03;0.03;;;12.90;99.90;;;;;;5462876;26;20562;-63
2024/04/15 10:46:17;;;;;;;0.00;0.00;;;12.70;99.90;;;;;;5476586;26;20025;-64
2024/04/15 10:48:43;;;;;;;1.10;0.35;;;12.60;99.90;;;;;;5474768;26;20458;-63
2024/04/15 10:51:09;;;;;;;0.15;0.15;;;12.60;99.90;;;;;;5473847;26;20006;-63
2024/04/15 10:53:35;;;;;;;0.00;0.00;;;12.60;99.90;;;;;;5476167;26;20010;-63
2024/04/15 10:56:01;;;;;;;0.00;0.00;;;12.60;99.90;;;;;;5474101;26;20017;-64
2024/04/15 10:58:27;;;;;;;0.00;0.00;;;12.60;99.90;;;;;;5476155;26;20006;-64
2024/04/15 11:00:55;;;;;;;0.00;0.00;;;12.50;99.90;;;;;;5471700;26;20474;-63
2024/04/15 11:03:23;;;;;;;0.00;0.00;;;12.50;99.90;;;;;;5473442;26;20026;-63
2024/04/15 11:05:49;;;;;;;0.10;0.00;;;12.40;99.90;;;;;;5449614;26;20014;-63
2024/04/15 11:08:16;;;;;;;0.00;0.00;;;12.30;99.90;;;;;;5474626;26;20575;-63
2024/04/15 11:10:42;;;;;;;0.10;0.10;;;12.30;99.90;;;;;;5453159;26;20563;-63
2024/04/15 11:13:10;;;;;;;0.00;0.00;;;12.20;99.90;;;;;;5473962;26;20002;-63
2024/04/15 11:15:36;;;;;;;0.00;0.00;;;12.20;99.90;;;;;;5475470;26;20340;-63
2024/04/15 11:18:03;;;;;;;0.00;0.00;;;12.20;99.90;;;;;;5448697;26;20017;-63
2024/04/15 11:20:28;;;;;;;0.00;0.00;;;12.10;85.70;;;;;;5468726;26;20006;-63
2024/04/15 11:23:00;;;;;;;0.00;0.00;;;12.00;99.90;;;;;;5464080;26;20006;-63
2024/04/15 11:25:26;;;;;;;0.00;0.00;;;11.90;99.90;;;;;;5442528;26;20399;-63
2024/04/15 11:27:54;;;;;;;0.00;0.00;;;11.90;99.90;;;;;;5475173;26;20414;-63
2024/04/15 11:30:26;;;;;;;0.00;0.00;;;11.90;99.90;;;;;;5471072;26;20013;-63
2024/04/15 11:32:52;;;;;;;0.00;0.00;;;11.90;99.90;;;;;;5470881;26;20470;-65
2024/04/15 11:35:19;;;;;;;1.75;0.20;;;12.00;99.90;;;;;;5442197;26;20025;-63
2024/04/15 11:37:58;;;;;;;0.00;0.00;;;12.10;99.90;;;;;;5442368;26;20046;-63
2024/04/15 11:40:25;;;;;;;0.00;0.00;;;12.30;99.90;;;;;;5441262;26;20014;-63
2024/04/15 11:42:53;;;;;;;0.00;0.00;;;12.50;99.90;;;;;;5442843;26;20007;-63
2024/04/15 11:45:19;;;;;;;0.10;0.10;;;12.60;99.90;;;;;;5467941;26;20026;-63
2024/04/15 11:47:54;;;;;;;0.00;0.00;;;12.60;99.90;;;;;;5453980;26;20006;-63
2024/04/15 11:50:20;;;;;;;0.00;0.00;;;12.60;99.90;;;;;;5449699;26;20006;-63
2024/04/15 11:52:47;;;;;;;0.00;0.00;;;12.40;99.90;;;;;;5458218;26;20020;-63
2024/04/15 11:55:17;;;;;;;0.10;0.10;;;12.10;99.90;;;;;;5472520;26;20075;-63
2024/04/15 11:57:44;;;;;;;0.00;0.00;;;11.80;99.90;;;;;;5469214;26;20006;-63
2024/04/15 12:00:14;;;;;;;0.00;0.00;;;11.50;1.00;;;;;;5469850;26;20487;-63
2024/04/15 12:02:41;;;;;;;0.10;0.10;;;11.20;79.30;;;;;;5437754;26;19999;-65
2024/04/15 12:05:07;;;;;;;0.08;0.08;;;10.90;99.90;;;;;;5432634;26;20007;-64
2024/04/15 12:07:33;;;;;;;0.20;0.10;;;10.70;99.90;;;;;;5472452;26;20341;-65
2024/04/15 12:10:05;;;;;;;0.00;0.00;;;10.60;99.90;;;;;;5469916;26;20017;-64
2024/04/15 12:12:31;;;;;;;0.00;0.00;;;10.50;99.90;;;;;;5470990;26;20015;-65
2024/04/15 12:14:57;;;;;;;0.10;0.10;;;10.60;99.90;;;;;;5438920;26;20026;-65
2024/04/15 12:17:25;;;;;;;0.10;0.10;;;10.70;1.00;;;;;;5472261;26;20017;-66
2024/04/15 12:19:50;;;;;;;0.08;0.08;;;10.70;1.00;;;;;;5473582;26;20010;-65
2024/04/15 12:22:16;;;;;;;0.00;0.00;;;10.70;99.90;;;;;;5437431;26;20075;-65
2024/04/15 12:24:48;;;;;;;0.20;0.05;;;10.70;99.90;;;;;;5456994;26;20529;-66
2024/04/15 12:27:14;;;;;;;0.00;0.00;;;10.60;99.90;;;;;;5462716;26;20014;-66
2024/04/15 12:29:39;;;;;;;0.00;0.00;;;10.50;99.90;;;;;;5470504;26;20006;-66
2024/04/15 12:32:06;;;;;;;0.08;0.08;;;10.40;99.90;;;;;;5439387;26;20082;-66
2024/04/15 12:34:34;;;;;;;0.00;0.00;;;10.40;99.90;;;;;;5449064;26;20007;-66
2024/04/15 12:37:00;;;;;;;0.00;0.00;;;10.30;99.90;;;;;;5454648;26;20070;-66
2024/04/15 12:39:25;;;;;;;0.00;0.00;;;10.30;99.90;;;;;;5446940;26;20022;-66
2024/04/15 12:41:51;;;;;;;0.10;0.10;;;10.20;99.90;;;;;;5456491;26;20006;-66
2024/04/15 12:44:18;;;;;;;0.10;0.10;;;10.10;99.90;;;;;;5444766;26;20075;-66
2024/04/15 12:46:44;;;;;;;0.00;0.00;;;10.00;99.90;;;;;;5468707;26;20083;-66
2024/04/15 12:49:11;;;;;;;0.00;0.00;;;10.00;99.90;;;;;;5437560;26;20708;-66
2024/04/15 12:51:36;;;;;;;0.10;0.10;;;9.90;99.90;;;;;;5471859;26;20103;-66
2024/04/15 12:54:02;;;;;;;0.00;0.00;;;9.90;99.90;;;;;;5471051;26;20006;-66